createdAt,value
2022-08-07T00:01:44.218Z,2.42
2022-08-07T00:04:09.494Z,2.42
2022-08-07T00:06:41.026Z,2.80
2022-08-07T00:09:22.383Z,2.60
2022-08-07T00:11:55.324Z,2.58
2022-08-07T00:14:25.445Z,2.72
2022-08-07T00:17:01.867Z,2.90
2022-08-07T00:19:59.892Z,2.50
2022-08-07T00:22:24.514Z,2.50
2022-08-07T00:25:02.751Z,2.40
2022-08-07T00:27:51.918Z,2.38
2022-08-07T00:30:27.485Z,2.50
2022-08-07T00:32:59.994Z,3.10
2022-08-07T00:35:29.602Z,2.38
2022-08-07T00:38:00.193Z,1.70
2022-08-07T00:40:39.394Z,1.75
2022-08-07T00:43:09.758Z,3.80
2022-08-07T00:45:38.741Z,4.03
2022-08-07T00:48:09.129Z,0.90
2022-08-07T00:50:46.142Z,0.68
2022-08-07T00:53:17.851Z,0.60
2022-08-07T00:56:03.131Z,0.57
2022-08-07T00:58:32.616Z,0.88
2022-08-07T01:00:59.622Z,0.73
2022-08-07T01:03:54.891Z,0.70
2022-08-07T01:06:16.756Z,0.60
2022-08-07T01:08:53.372Z,0.65
2022-08-07T01:12:09.779Z,0.60
2022-08-07T01:14:08.796Z,0.52
2022-08-07T01:16:36.935Z,0.70
2022-08-07T01:19:10.859Z,0.82
2022-08-07T01:21:48.226Z,0.55
2022-08-07T01:24:21.144Z,0.40
2022-08-07T01:26:52.161Z,0.70
2022-08-07T01:29:21.984Z,0.60
2022-08-07T01:31:49.792Z,0.70
2022-08-07T01:34:18.673Z,0.60
2022-08-07T01:36:52.744Z,0.85
2022-08-07T01:39:41.201Z,0.80
2022-08-07T01:42:38.917Z,0.80
2022-08-07T01:45:03.301Z,0.60
2022-08-07T01:48:21.369Z,0.63
2022-08-07T01:50:16.938Z,0.70
2022-08-07T01:53:00.933Z,0.77
2022-08-07T01:55:34.364Z,0.70
2022-08-07T01:58:28.856Z,0.85
2022-08-07T02:01:09.892Z,0.70
2022-08-07T02:03:56.599Z,0.52
2022-08-07T02:06:32.027Z,0.70
2022-08-07T02:09:03.518Z,0.75
2022-08-07T02:12:03.038Z,0.63
2022-08-07T02:14:40.411Z,0.65
2022-08-07T02:17:10.991Z,0.77
2022-08-07T02:20:07.617Z,0.68
2022-08-07T02:22:29.584Z,0.90
2022-08-07T02:24:58.867Z,0.80
2022-08-07T02:27:34.284Z,0.55
2022-08-07T02:30:07.216Z,0.60
2022-08-07T02:32:39.436Z,0.60
2022-08-07T02:35:11.409Z,0.68
2022-08-07T02:37:48.367Z,0.50
2022-08-07T02:40:30.987Z,0.65
2022-08-07T02:43:07.986Z,0.77
2022-08-07T02:45:59.117Z,0.50
2022-08-07T02:48:28.330Z,0.55
2022-08-07T02:50:58.918Z,0.70
2022-08-07T02:53:39.145Z,1.15
2022-08-07T02:56:20.979Z,0.60
2022-08-07T02:58:51.451Z,0.70
2022-08-07T03:01:36.667Z,0.63
2022-08-07T03:04:12.972Z,0.50
2022-08-07T03:06:48.351Z,0.80
2022-08-07T03:09:43.329Z,0.75
2022-08-07T03:12:08.092Z,0.68
2022-08-07T03:14:48.604Z,0.50
2022-08-07T03:17:19.146Z,0.63
2022-08-07T03:19:55.251Z,0.68
2022-08-07T03:22:24.142Z,0.50
2022-08-07T03:25:00.403Z,0.98
2022-08-07T03:27:30.286Z,0.50
2022-08-07T03:29:58.951Z,0.70
2022-08-07T03:32:36.109Z,0.82
2022-08-07T03:35:17.548Z,0.50
2022-08-07T03:37:54.028Z,0.52
2022-08-07T03:40:23.566Z,0.57
2022-08-07T03:42:55.751Z,0.60
2022-08-07T03:45:30.711Z,0.70
2022-08-07T03:47:58.802Z,0.80
2022-08-07T03:50:28.576Z,0.57
2022-08-07T03:52:58.717Z,0.70
2022-08-07T03:55:57.312Z,0.63
2022-08-07T03:59:06.700Z,0.63
2022-08-07T04:01:01.074Z,0.60
2022-08-07T04:03:28.098Z,0.70
2022-08-07T04:06:38.473Z,0.60
2022-08-07T04:09:03.007Z,0.57
2022-08-07T04:12:26.571Z,0.90
2022-08-07T04:14:37.631Z,0.68
2022-08-07T04:17:05.198Z,1.05
2022-08-07T04:19:51.198Z,0.80
2022-08-07T04:22:19.527Z,0.80
2022-08-07T04:24:50.633Z,0.60
2022-08-07T04:27:25.398Z,0.82
2022-08-07T04:30:01.650Z,0.50
2022-08-07T04:32:34.428Z,0.77
2022-08-07T04:35:07.332Z,0.80
2022-08-07T04:38:01.228Z,0.63
2022-08-07T04:40:30.008Z,0.50
2022-08-07T04:43:02.070Z,0.70
2022-08-07T04:45:57.894Z,0.80
2022-08-07T04:49:14.852Z,0.82
2022-08-07T04:51:50.766Z,0.70
2022-08-07T04:54:40.414Z,0.60
2022-08-07T04:58:11.157Z,0.57
2022-08-07T05:00:14.637Z,0.80
2022-08-07T05:02:57.094Z,0.60
2022-08-07T05:05:53.255Z,0.68
2022-08-07T05:09:01.458Z,0.75
2022-08-07T05:11:58.590Z,0.93
2022-08-07T05:14:55.986Z,0.75
2022-08-07T05:18:00.599Z,0.82
2022-08-07T05:20:10.011Z,0.60
2022-08-07T05:22:41.234Z,0.70
2022-08-07T05:25:11.862Z,0.73
2022-08-07T05:28:15.968Z,0.95
2022-08-07T05:30:47.648Z,0.60
2022-08-07T05:33:15.707Z,0.80
2022-08-07T05:35:46.014Z,0.60
2022-08-07T05:38:58.326Z,0.77
2022-08-07T05:41:12.004Z,0.60
2022-08-07T05:44:07.537Z,0.80
2022-08-07T05:46:31.027Z,0.77
2022-08-07T05:48:59.510Z,0.88
2022-08-07T05:51:31.573Z,0.98
2022-08-07T05:54:12.098Z,0.68
2022-08-07T05:56:51.287Z,0.75
2022-08-07T05:59:21.052Z,0.60
2022-08-07T06:01:49.903Z,0.90
2022-08-07T06:04:19.813Z,0.60
2022-08-07T06:06:56.396Z,0.70
2022-08-07T06:10:04.348Z,0.60
2022-08-07T06:12:12.491Z,0.70
2022-08-07T06:14:43.197Z,0.95
2022-08-07T06:17:19.321Z,0.60
2022-08-07T06:20:03.459Z,0.80
2022-08-07T06:22:36.886Z,1.13
2022-08-07T06:25:10.286Z,1.20
2022-08-07T06:28:00.623Z,1.00
2022-08-07T06:30:31.800Z,0.60
2022-08-07T06:33:05.239Z,1.00
2022-08-07T06:35:45.525Z,0.70
2022-08-07T06:38:19.216Z,0.80
2022-08-07T06:40:50.354Z,0.80
2022-08-07T06:43:20.975Z,0.70
2022-08-07T06:45:48.976Z,0.80
2022-08-07T06:48:15.864Z,1.17
2022-08-07T06:50:53.111Z,0.75
2022-08-07T06:55:29.814Z,0.70
2022-08-07T06:56:15.517Z,0.80
2022-08-07T07:00:14.348Z,0.75
2022-08-07T07:01:43.651Z,0.68
2022-08-07T07:04:32.063Z,0.73
2022-08-07T07:07:01.314Z,0.75
2022-08-07T07:09:31.856Z,0.93
2022-08-07T07:12:19.718Z,0.90
2022-08-07T07:15:23.635Z,1.00
2022-08-07T07:18:09.385Z,0.70
2022-08-07T07:20:42.141Z,0.75
2022-08-07T07:24:08.259Z,0.90
2022-08-07T07:26:31.455Z,0.90
2022-08-07T07:29:39.320Z,0.85
2022-08-07T07:31:49.366Z,0.70
2022-08-07T07:34:30.533Z,1.00
2022-08-07T07:37:14.434Z,5.55
2022-08-07T07:39:54.893Z,2.42
2022-08-07T07:42:34.820Z,2.50
2022-08-07T07:45:04.470Z,2.55
2022-08-07T07:47:42.636Z,2.67
2022-08-07T07:50:35.564Z,2.50
2022-08-07T07:53:20.462Z,2.60
2022-08-07T07:55:54.754Z,2.60
2022-08-07T07:58:27.912Z,2.50
2022-08-07T08:00:58.722Z,2.40
2022-08-07T08:04:09.856Z,2.65
2022-08-07T08:06:19.340Z,2.67
2022-08-07T08:08:49.349Z,2.30
2022-08-07T08:11:18.191Z,2.20
2022-08-07T08:14:04.448Z,2.35
2022-08-07T08:16:38.546Z,2.60
2022-08-07T08:20:15.930Z,2.70
2022-08-07T08:22:21.421Z,2.95
2022-08-07T08:25:41.737Z,2.65
2022-08-07T08:28:12.461Z,2.60
2022-08-07T08:30:51.359Z,2.90
2022-08-07T08:33:28.742Z,2.50
2022-08-07T08:36:01.733Z,2.53
2022-08-07T08:38:38.626Z,2.92
2022-08-07T08:41:57.063Z,2.63
2022-08-07T08:44:44.311Z,3.10
2022-08-07T08:47:52.758Z,2.85
2022-08-07T08:50:39.091Z,3.30
2022-08-07T08:53:44.105Z,2.92
2022-08-07T08:56:17.345Z,3.40
2022-08-07T08:59:12.779Z,3.60
2022-08-07T09:02:11.069Z,3.40
2022-08-07T09:04:49.639Z,3.25
2022-08-07T09:07:46.481Z,3.03
2022-08-07T09:10:33.885Z,3.55
2022-08-07T09:13:09.438Z,3.38
2022-08-07T09:16:29.595Z,3.03
2022-08-07T09:19:50.865Z,3.20
2022-08-07T09:24:29.139Z,3.60
2022-08-07T09:25:18.007Z,3.25
2022-08-07T09:28:02.991Z,3.47
2022-08-07T09:30:54.752Z,3.13
2022-08-07T09:33:58.238Z,3.10
2022-08-07T09:36:35.698Z,3.40
2022-08-07T09:39:52.504Z,3.22
2022-08-07T09:42:10.176Z,3.20
2022-08-07T09:47:20.202Z,3.10
2022-08-07T09:48:50.184Z,3.40
2022-08-07T09:52:10.755Z,3.45
2022-08-07T09:54:18.024Z,2.90
2022-08-07T09:56:57.337Z,2.88
2022-08-07T09:59:46.474Z,3.40
2022-08-07T10:02:39.684Z,3.03
2022-08-07T10:05:58.076Z,3.25
2022-08-07T10:08:36.631Z,3.47
2022-08-07T10:12:00.099Z,3.00
2022-08-07T10:14:23.155Z,2.97
2022-08-07T10:17:10.577Z,3.50
2022-08-07T10:19:53.199Z,3.13
2022-08-07T10:22:43.139Z,3.10
2022-08-07T10:25:23.609Z,3.00
2022-08-07T10:28:29.189Z,2.80
2022-08-07T10:31:14.986Z,2.60
2022-08-07T10:34:27.335Z,3.08
2022-08-07T10:37:05.598Z,3.58
2022-08-07T10:40:05.672Z,3.40
2022-08-07T10:42:46.351Z,3.50
2022-08-07T10:45:57.697Z,3.63
2022-08-07T10:48:39.457Z,3.25
2022-08-07T10:51:57.705Z,3.38
2022-08-07T10:54:18.728Z,2.75
2022-08-07T10:57:00.625Z,2.95
2022-08-07T10:59:59.000Z,3.10
2022-08-07T11:02:38.020Z,3.33
2022-08-07T11:05:48.909Z,3.00
2022-08-07T11:08:34.459Z,3.47
2022-08-07T11:11:12.682Z,2.95
2022-08-07T11:14:46.027Z,3.53
2022-08-07T11:17:13.146Z,3.10
2022-08-07T11:20:05.083Z,3.08
2022-08-07T11:22:45.946Z,2.83
2022-08-07T11:25:27.181Z,3.30
2022-08-07T11:28:27.954Z,3.25
2022-08-07T11:31:08.870Z,3.22
2022-08-07T11:34:06.496Z,2.92
2022-08-07T11:37:04.956Z,3.03
2022-08-07T11:39:59.013Z,4.20
2022-08-07T11:42:33.078Z,3.60
2022-08-07T11:45:20.671Z,2.97
2022-08-07T11:48:18.298Z,2.95
2022-08-07T11:50:57.656Z,3.05
2022-08-07T11:53:36.104Z,2.55
2022-08-07T11:56:35.650Z,3.03
2022-08-07T12:00:11.749Z,4.35
2022-08-07T12:03:03.848Z,3.50
2022-08-07T12:06:37.980Z,2.63
2022-08-07T12:09:23.380Z,2.90
2022-08-07T12:12:10.450Z,3.10
2022-08-07T12:14:56.198Z,2.97
2022-08-07T12:17:38.275Z,2.60
2022-08-07T12:20:20.772Z,2.60
2022-08-07T12:23:15.486Z,2.60
2022-08-07T12:26:05.311Z,3.25
2022-08-07T12:28:58.941Z,3.05
2022-08-07T12:32:01.924Z,2.60
2022-08-07T12:34:25.973Z,2.90
2022-08-07T12:36:56.394Z,2.83
2022-08-07T12:39:43.772Z,2.92
2022-08-07T12:42:15.921Z,2.92
2022-08-07T12:44:46.416Z,2.80
2022-08-07T12:47:43.944Z,3.33
2022-08-07T12:50:54.339Z,3.30
2022-08-07T12:54:37.017Z,2.92
2022-08-07T12:57:09.419Z,3.08
2022-08-07T12:59:54.278Z,3.00
2022-08-07T13:02:50.819Z,2.80
2022-08-07T13:06:02.709Z,2.88
2022-08-07T13:08:38.694Z,3.00
2022-08-07T13:11:31.342Z,3.00
2022-08-07T13:14:51.483Z,2.92
2022-08-07T13:17:40.043Z,2.80
2022-08-07T13:20:18.348Z,3.10
2022-08-07T13:22:53.411Z,2.97
2022-08-07T13:25:31.041Z,3.08
2022-08-07T13:28:11.272Z,3.00
2022-08-07T13:30:49.168Z,2.70
2022-08-07T13:34:33.384Z,2.85
2022-08-07T13:36:41.806Z,3.00
2022-08-07T13:39:28.606Z,3.15
2022-08-07T13:42:14.271Z,2.72
2022-08-07T13:45:11.522Z,2.60
2022-08-07T13:48:05.247Z,2.60
2022-08-07T13:50:34.507Z,2.90
2022-08-07T13:53:21.813Z,3.00
2022-08-07T13:55:54.550Z,2.60
2022-08-07T13:58:43.278Z,2.70
2022-08-07T14:01:24.830Z,2.83
2022-08-07T14:04:07.236Z,3.10
2022-08-07T14:06:39.080Z,3.33
2022-08-07T14:09:07.314Z,3.00
2022-08-07T14:11:53.693Z,3.20
2022-08-07T14:14:51.431Z,3.10
2022-08-07T14:17:51.617Z,2.90
2022-08-07T14:20:43.048Z,2.80
2022-08-07T14:23:31.596Z,3.10
2022-08-07T14:26:28.063Z,3.22
2022-08-07T14:29:05.873Z,2.90
2022-08-07T14:31:42.790Z,3.00
2022-08-07T14:34:12.121Z,2.78
2022-08-07T14:36:56.401Z,3.10
2022-08-07T14:40:16.725Z,2.88
2022-08-07T14:42:20.639Z,4.72
2022-08-07T14:44:53.671Z,2.33
2022-08-07T14:47:21.158Z,2.92
2022-08-07T14:49:56.836Z,2.65
2022-08-07T14:52:28.816Z,2.72
2022-08-07T14:54:58.498Z,3.03
2022-08-07T14:57:54.397Z,2.55
2022-08-07T15:00:20.866Z,2.80
2022-08-07T15:02:59.138Z,3.05
2022-08-07T15:05:30.173Z,2.63
2022-08-07T15:07:59.800Z,2.50
2022-08-07T15:10:30.000Z,2.40
2022-08-07T15:16:02.334Z,2.72
2022-08-07T15:18:40.209Z,2.70
2022-08-07T15:25:15.779Z,2.40
2022-08-07T15:27:04.521Z,2.70
2022-08-07T15:30:16.532Z,2.72
2022-08-07T15:32:51.149Z,2.83
2022-08-07T15:36:04.886Z,3.38
2022-08-07T15:38:30.000Z,3.10
2022-08-07T15:41:23.398Z,3.17
2022-08-07T15:44:08.123Z,3.10
2022-08-07T15:46:51.769Z,2.95
2022-08-07T15:52:13.657Z,3.00
2022-08-07T15:54:44.362Z,3.03
2022-08-07T15:57:39.482Z,2.97
2022-08-07T16:00:06.845Z,3.28
2022-08-07T16:02:47.019Z,2.80
2022-08-07T16:05:20.530Z,3.20
2022-08-07T16:08:30.420Z,2.97
2022-08-07T16:10:47.231Z,3.25
2022-08-07T16:13:58.952Z,2.85
2022-08-07T16:16:57.096Z,3.80
2022-08-07T16:19:59.147Z,3.20
2022-08-07T16:22:33.957Z,3.28
2022-08-07T16:25:52.541Z,2.97
2022-08-07T16:30:08.294Z,3.28
2022-08-07T16:31:57.702Z,3.35
2022-08-07T16:34:39.574Z,3.30
2022-08-07T16:38:07.272Z,3.10
2022-08-07T16:40:30.770Z,3.10
2022-08-07T16:43:16.988Z,3.25
2022-08-07T16:46:41.047Z,3.90
2022-08-07T16:50:27.247Z,4.57
2022-08-07T16:52:51.174Z,3.00
2022-08-07T16:55:28.203Z,3.25
2022-08-07T16:58:54.334Z,3.40
2022-08-07T17:44:15.636Z,2.92
2022-08-07T17:47:03.097Z,3.58
2022-08-07T17:49:52.199Z,3.10
2022-08-07T17:52:36.854Z,3.35
2022-08-07T17:55:14.208Z,3.40
2022-08-07T17:58:07.118Z,3.35
2022-08-07T18:00:48.810Z,3.53
2022-08-07T18:03:25.537Z,3.63
2022-08-07T18:06:06.367Z,3.13
2022-08-07T18:09:01.220Z,3.38
2022-08-07T18:12:16.739Z,3.40
2022-08-07T18:14:46.447Z,3.53
2022-08-07T18:18:46.223Z,3.50
2022-08-07T18:21:07.459Z,3.15
2022-08-07T18:23:46.686Z,3.22
2022-08-07T18:26:20.612Z,3.72
2022-08-07T18:30:07.621Z,3.45
2022-08-07T18:32:29.908Z,3.10
2022-08-07T18:35:15.938Z,3.13
2022-08-07T18:38:58.643Z,2.90
2022-08-07T18:41:08.088Z,4.25
2022-08-07T18:43:43.209Z,4.40
2022-08-07T18:47:08.853Z,3.17
2022-08-07T18:50:32.922Z,4.53
2022-08-07T18:52:57.889Z,7.25
2022-08-07T18:55:41.913Z,3.00
2022-08-07T18:58:33.728Z,2.92
2022-08-07T19:02:17.151Z,3.40
2022-08-07T19:04:37.921Z,3.08
2022-08-07T19:08:05.263Z,3.40
2022-08-07T19:10:51.849Z,3.20
2022-08-07T19:13:22.282Z,3.65
2022-08-07T19:17:00.376Z,3.30
2022-08-07T19:19:31.971Z,3.28
2022-08-07T19:22:11.215Z,3.55
2022-08-07T19:24:44.596Z,3.30
2022-08-07T19:28:56.736Z,3.00
2022-08-07T19:30:55.743Z,3.20
2022-08-07T19:33:08.305Z,3.13
2022-08-07T19:35:42.076Z,3.15
2022-08-07T19:38:17.013Z,2.78
2022-08-07T19:40:50.427Z,3.20
2022-08-07T19:43:50.277Z,2.65
2022-08-07T19:46:13.744Z,3.05
2022-08-07T19:48:53.492Z,3.00
2022-08-07T19:51:50.873Z,2.97
2022-08-07T19:54:35.360Z,2.63
2022-08-07T19:58:01.693Z,3.10
2022-08-07T19:59:53.351Z,2.90
2022-08-07T20:02:41.102Z,2.88
2022-08-07T20:05:28.130Z,2.80
2022-08-07T20:08:02.269Z,3.05
2022-08-07T20:10:36.312Z,2.83
2022-08-07T20:13:26.947Z,3.10
2022-08-07T20:16:01.078Z,3.15
2022-08-07T20:18:34.506Z,2.95
2022-08-07T20:21:14.547Z,3.10
2022-08-07T20:24:04.113Z,3.10
2022-08-07T20:26:44.892Z,2.92
2022-08-07T20:29:49.158Z,3.03
2022-08-07T20:32:22.290Z,2.95
2022-08-07T20:34:55.067Z,3.10
2022-08-07T20:37:25.155Z,3.45
2022-08-07T20:40:02.693Z,3.53
2022-08-07T20:42:32.300Z,3.25
2022-08-07T20:45:01.366Z,3.03
2022-08-07T20:47:56.061Z,3.05
2022-08-07T20:50:21.069Z,3.00
2022-08-07T20:52:51.100Z,3.20
2022-08-07T20:55:23.852Z,3.40
2022-08-07T20:58:03.865Z,3.25
2022-08-07T21:00:46.050Z,3.00
2022-08-07T21:03:19.268Z,3.03
2022-08-07T21:05:56.868Z,3.25
2022-08-07T21:08:37.653Z,3.22
2022-08-07T21:11:12.023Z,2.90
2022-08-07T21:14:16.240Z,5.45
2022-08-07T21:18:00.575Z,2.88
2022-08-07T21:19:51.616Z,2.92
2022-08-07T21:22:28.898Z,3.42
2022-08-07T21:25:12.263Z,2.90
2022-08-07T21:28:01.789Z,3.38
2022-08-07T21:30:47.048Z,3.00
2022-08-07T21:33:22.576Z,3.00
2022-08-07T21:36:32.024Z,3.00
2022-08-07T21:39:45.935Z,2.95
2022-08-07T21:42:42.688Z,2.83
2022-08-07T21:46:11.145Z,3.28
2022-08-07T21:48:56.648Z,3.00
2022-08-07T21:51:51.080Z,3.00
2022-08-07T21:54:24.315Z,3.20
2022-08-07T21:56:54.914Z,3.20
2022-08-07T22:00:04.948Z,2.88
2022-08-07T22:02:56.743Z,3.10
2022-08-07T22:05:44.580Z,3.20
2022-08-07T22:08:14.428Z,3.08
2022-08-07T22:10:49.750Z,2.75
2022-08-07T22:13:17.236Z,3.60
2022-08-07T22:16:42.992Z,2.63
2022-08-07T22:19:01.025Z,3.03
2022-08-07T22:22:05.306Z,2.75
2022-08-07T22:24:41.032Z,2.90
2022-08-07T22:27:18.659Z,3.08
2022-08-07T22:29:55.145Z,3.03
2022-08-07T22:32:42.260Z,3.50
2022-08-07T22:35:11.563Z,3.10
2022-08-07T22:38:03.001Z,2.90
2022-08-07T22:40:56.915Z,3.00
2022-08-07T22:43:33.926Z,3.08
2022-08-07T22:47:02.175Z,3.03
2022-08-07T22:49:39.130Z,2.75
2022-08-07T22:52:11.698Z,2.83
2022-08-07T22:55:17.443Z,3.13
2022-08-07T22:58:10.088Z,2.80
2022-08-07T23:00:51.703Z,3.13
2022-08-07T23:03:21.278Z,3.25
2022-08-07T23:06:27.605Z,2.97
2022-08-07T23:10:06.297Z,2.97
2022-08-07T23:12:34.012Z,3.38
2022-08-07T23:16:06.869Z,4.68
2022-08-07T23:19:16.818Z,1.42
2022-08-07T23:22:11.268Z,0.82
2022-08-07T23:25:16.194Z,1.00
2022-08-07T23:28:21.155Z,0.70
2022-08-07T23:31:11.318Z,0.85
2022-08-07T23:34:34.063Z,0.50
2022-08-07T23:37:29.388Z,0.85
2022-08-07T23:40:22.920Z,0.60
2022-08-07T23:43:16.716Z,0.90
2022-08-07T23:46:10.509Z,0.80
2022-08-07T23:49:00.310Z,0.68
2022-08-07T23:52:59.977Z,0.77
2022-08-07T23:54:44.244Z,0.80
2022-08-07T23:57:30.668Z,0.98
